createdAt,value
2022-07-25T00:06:22.240Z,22.17
2022-07-25T00:16:27.159Z,23.27
2022-07-25T00:26:30.390Z,19.95
2022-07-25T00:36:35.049Z,23.10
2022-07-25T00:46:39.896Z,19.42
2022-07-25T00:56:46.838Z,18.48
2022-07-25T01:06:50.323Z,19.67
2022-07-25T01:16:55.336Z,20.67
2022-07-25T01:27:00.516Z,18.67
2022-07-25T01:37:06.627Z,18.90
2022-07-25T01:47:11.377Z,22.05
2022-07-25T01:57:14.374Z,21.50
2022-07-25T02:07:19.062Z,21.27
2022-07-25T02:17:22.323Z,21.42
2022-07-25T02:27:26.841Z,21.27
2022-07-25T02:37:29.909Z,21.73
2022-07-25T02:47:34.580Z,26.33
2022-07-25T02:57:42.529Z,26.45
2022-07-25T03:08:21.943Z,25.27
2022-07-25T03:18:36.687Z,25.73
2022-07-25T03:28:41.626Z,24.58
2022-07-25T03:38:44.780Z,21.80
2022-07-25T03:48:49.706Z,20.80
2022-07-25T03:58:53.282Z,21.08
2022-07-25T04:08:58.517Z,19.52
2022-07-25T04:19:01.931Z,19.25
2022-07-25T04:29:06.573Z,19.17
2022-07-25T04:39:09.708Z,15.88
2022-07-25T04:49:14.538Z,15.15
2022-07-25T04:59:17.708Z,15.50
2022-07-25T05:09:22.236Z,15.35
2022-07-25T05:19:25.591Z,17.45
2022-07-25T05:29:30.413Z,16.23
2022-07-25T05:39:33.657Z,17.20
2022-07-25T05:49:38.424Z,14.73
2022-07-25T05:59:42.348Z,15.25
2022-07-25T06:09:47.182Z,14.70
2022-07-25T06:19:50.396Z,14.65
2022-07-25T06:29:55.308Z,12.15
2022-07-25T06:39:58.542Z,11.68
2022-07-25T06:50:04.153Z,11.88
2022-07-25T07:00:13.092Z,12.23
2022-07-25T07:10:18.389Z,10.70
2022-07-25T07:20:21.538Z,10.85
2022-07-25T07:30:44.179Z,10.03
2022-07-25T07:40:49.472Z,9.73
2022-07-25T07:50:54.254Z,8.88
2022-07-25T08:00:57.477Z,9.70
2022-07-25T08:11:02.148Z,8.85
2022-07-25T08:21:06.937Z,9.98
2022-07-25T08:31:11.835Z,8.73
2022-07-25T08:41:14.956Z,8.95
2022-07-25T08:51:19.794Z,8.98
2022-07-25T09:01:23.046Z,8.90
2022-07-25T09:11:33.493Z,9.18
2022-07-25T09:21:36.962Z,10.20
2022-07-25T09:31:43.269Z,8.68
2022-07-25T09:41:46.393Z,9.82
2022-07-25T09:51:51.386Z,9.35
2022-07-25T10:02:03.828Z,9.80
2022-07-25T10:12:11.289Z,7.70
2022-07-25T10:22:15.631Z,6.40
2022-07-25T10:32:20.194Z,6.47
2022-07-25T10:42:24.067Z,6.50
2022-07-25T10:52:30.866Z,7.47
2022-07-25T11:02:34.168Z,7.63
2022-07-25T11:12:38.958Z,9.65
2022-07-25T11:22:42.214Z,8.63
2022-07-25T11:32:49.963Z,14.68
2022-07-25T11:42:56.596Z,14.77
2022-07-25T11:53:03.300Z,14.45
2022-07-25T12:03:09.027Z,12.50
2022-07-25T12:13:23.125Z,12.02
2022-07-25T12:23:26.228Z,12.80
2022-07-25T12:33:38.690Z,12.18
2022-07-25T12:43:47.186Z,11.65
2022-07-25T12:53:52.630Z,13.85
2022-07-25T13:03:55.946Z,13.02
2022-07-25T13:14:02.090Z,12.38
2022-07-25T13:24:07.617Z,10.95
2022-07-25T13:34:12.233Z,14.00
2022-07-25T13:44:16.162Z,13.90
2022-07-25T13:54:21.416Z,12.60
2022-07-25T14:04:24.794Z,13.20
2022-07-25T14:14:29.425Z,13.65
2022-07-25T14:24:32.537Z,13.33
2022-07-25T14:34:38.240Z,12.20
2022-07-25T14:44:41.745Z,14.35
2022-07-25T14:54:46.466Z,13.38
2022-07-25T15:04:49.793Z,12.70
2022-07-25T15:14:57.428Z,14.35
2022-07-25T15:35:25.092Z,13.40
2022-07-25T15:45:33.024Z,12.07
2022-07-25T15:55:39.975Z,11.80
2022-07-25T16:05:44.146Z,13.20
2022-07-25T16:15:48.767Z,12.73
2022-07-25T16:25:52.197Z,13.70
2022-07-25T16:35:57.679Z,13.35
2022-07-25T16:46:02.700Z,12.82
2022-07-25T16:56:08.060Z,12.80
2022-07-25T17:06:11.414Z,13.55
2022-07-25T17:16:16.063Z,12.18
2022-07-25T17:26:19.626Z,12.30
2022-07-25T17:36:27.041Z,16.75
2022-07-25T17:46:30.311Z,12.85
2022-07-25T17:56:35.269Z,19.17
2022-07-25T18:06:38.450Z,16.73
2022-07-25T18:16:45.132Z,17.63
2022-07-25T18:26:48.345Z,19.38
2022-07-25T18:36:53.115Z,19.60
2022-07-25T18:46:56.587Z,20.20
2022-07-25T18:57:03.828Z,20.48
2022-07-25T19:07:09.152Z,17.67
2022-07-25T19:17:13.715Z,15.70
2022-07-25T19:27:17.053Z,15.70
2022-07-25T19:37:21.579Z,16.00
2022-07-25T19:47:24.687Z,15.77
2022-07-25T19:57:29.832Z,15.15
2022-07-25T20:07:35.992Z,16.50
2022-07-25T20:18:08.677Z,13.07
2022-07-25T20:28:24.490Z,10.07
2022-07-25T20:38:28.868Z,13.80
2022-07-25T20:48:36.003Z,12.68
2022-07-25T20:58:40.152Z,12.35
2022-07-25T21:08:45.209Z,13.63
2022-07-25T21:18:56.400Z,12.60
2022-07-25T21:29:01.332Z,11.43
2022-07-25T21:39:05.166Z,8.75
2022-07-25T21:49:42.017Z,10.80
2022-07-25T21:59:48.745Z,8.77
2022-07-25T22:09:53.456Z,9.90
2022-07-25T22:20:00.259Z,10.25
2022-07-25T22:30:06.370Z,11.18
2022-07-25T22:40:10.373Z,9.75
2022-07-25T22:50:15.444Z,9.95
2022-07-25T23:21:36.771Z,10.02
2022-07-25T23:31:44.451Z,10.95
2022-07-25T23:41:49.831Z,13.00
2022-07-25T23:51:53.582Z,14.57
